Time;durP1;ratioP1;P1;durP2;ratioP2;P2;SDS_P1;SDS_P2;PMS_P1;PMS_P2;Temp;Humidity;BMP_temperature;BMP_pressure;BME280_temperature;BME280_humidity;BME280_pressure;Samples;Min_cycle;Max_cycle;Signal;HPM_P1;HPM_P2
2022/03/20 00:01:03;;;;;;;27.35;16.65;;;;;;;;;;6285780;22;20023;-82
2022/03/20 00:03:30;;;;;;;25.80;16.52;;;;;;;;;;6283797;22;19999;-83
2022/03/20 00:05:57;;;;;;;26.10;17.25;;;;;;;;;;6256301;22;20010;-83
2022/03/20 00:08:23;;;;;;;25.95;17.38;;;;;;;;;;6285570;22;20071;-83
2022/03/20 00:10:50;;;;;;;25.25;15.73;;;;;;;;;;6283869;22;20023;-83
2022/03/20 00:13:18;;;;;;;26.00;17.27;;;;;;;;;;6283562;22;20052;-82
2022/03/20 00:15:45;;;;;;;28.02;16.67;;;;;;;;;;6283612;22;20010;-82
2022/03/20 00:18:12;;;;;;;28.42;17.23;;;;;;;;;;6284619;22;19999;-82
2022/03/20 00:20:39;;;;;;;28.48;17.00;;;;;;;;;;6282103;22;20000;-82
2022/03/20 00:23:07;;;;;;;26.00;17.42;;;;;;;;;;6283028;22;19996;-82
2022/03/20 00:25:37;;;;;;;26.27;17.13;;;;;;;;;;6283163;22;20018;-82
2022/03/20 00:28:04;;;;;;;29.48;17.30;;;;;;;;;;6283010;22;19999;-83
2022/03/20 00:30:30;;;;;;;27.38;17.13;;;;;;;;;;6281040;22;20435;-82
2022/03/20 00:32:56;;;;;;;26.50;17.02;;;;;;;;;;6254460;22;20053;-82
2022/03/20 00:35:22;;;;;;;25.70;15.50;;;;;;;;;;6254698;22;20010;-82
2022/03/20 00:37:48;;;;;;;29.90;16.98;;;;;;;;;;6281712;22;20004;-82
2022/03/20 00:40:14;;;;;;;25.30;16.17;;;;;;;;;;6281049;22;20011;-82
2022/03/20 00:42:40;;;;;;;22.98;15.55;;;;;;;;;;6282216;22;20004;-82
2022/03/20 00:45:06;;;;;;;27.55;16.20;;;;;;;;;;6254107;22;20023;-82
2022/03/20 00:47:32;;;;;;;25.70;16.80;;;;;;;;;;6254493;22;20008;-82
2022/03/20 00:49:58;;;;;;;25.08;15.52;;;;;;;;;;6253558;22;20008;-82
2022/03/20 00:52:25;;;;;;;24.48;15.77;;;;;;;;;;6281541;22;20137;-83
2022/03/20 00:54:51;;;;;;;27.05;18.73;;;;;;;;;;6282200;22;20004;-82
2022/03/20 00:57:17;;;;;;;27.48;17.50;;;;;;;;;;6262478;22;20015;-82
2022/03/20 00:59:43;;;;;;;26.45;16.20;;;;;;;;;;6280063;22;20003;-82
2022/03/20 01:02:09;;;;;;;27.65;15.73;;;;;;;;;;6279936;22;20004;-82
2022/03/20 01:04:37;;;;;;;24.85;16.27;;;;;;;;;;6281844;22;20003;-82
2022/03/20 01:07:04;;;;;;;22.88;15.98;;;;;;;;;;6280252;22;20003;-82
2022/03/20 01:09:30;;;;;;;25.70;16.95;;;;;;;;;;6281874;22;20195;-81
2022/03/20 01:11:56;;;;;;;26.02;15.43;;;;;;;;;;6280805;22;20011;-82
2022/03/20 01:14:23;;;;;;;25.73;15.85;;;;;;;;;;6281840;22;20000;-82
2022/03/20 01:16:49;;;;;;;25.75;15.88;;;;;;;;;;6282059;22;20007;-82
2022/03/20 01:19:15;;;;;;;22.92;15.38;;;;;;;;;;6280988;22;20051;-82
2022/03/20 01:21:42;;;;;;;24.48;14.88;;;;;;;;;;6280108;22;20513;-82
2022/03/20 01:24:08;;;;;;;22.85;14.95;;;;;;;;;;6280163;22;20082;-81
2022/03/20 01:26:38;;;;;;;26.10;16.92;;;;;;;;;;6280056;22;20169;-82
2022/03/20 01:29:07;;;;;;;25.35;15.18;;;;;;;;;;6281910;22;20065;-82
2022/03/20 01:31:33;;;;;;;22.20;14.43;;;;;;;;;;6280183;22;20003;-82
2022/03/20 01:33:59;;;;;;;27.95;14.95;;;;;;;;;;6279821;22;19999;-82
2022/03/20 01:36:26;;;;;;;21.95;13.90;;;;;;;;;;6280959;22;19999;-81
2022/03/20 01:38:52;;;;;;;23.85;14.25;;;;;;;;;;6278810;22;20447;-82
2022/03/20 01:41:18;;;;;;;24.10;14.93;;;;;;;;;;6280932;22;20008;-82
2022/03/20 01:43:55;;;;;;;21.65;13.93;;;;;;;;;;6280460;22;20027;-82
2022/03/20 01:46:22;;;;;;;19.83;12.40;;;;;;;;;;6280081;22;20029;-82
2022/03/20 01:48:49;;;;;;;20.77;14.20;;;;;;;;;;6280799;22;20026;-81
2022/03/20 01:51:16;;;;;;;19.23;12.80;;;;;;;;;;6278578;22;20008;-82
2022/03/20 01:53:42;;;;;;;21.48;13.77;;;;;;;;;;6277879;22;20378;-82
2022/03/20 01:56:08;;;;;;;20.42;13.05;;;;;;;;;;6277635;22;20003;-82
2022/03/20 01:58:34;;;;;;;20.60;13.52;;;;;;;;;;6279298;22;20012;-81
2022/03/20 02:01:02;;;;;;;20.55;12.63;;;;;;;;;;6279822;22;20006;-82
2022/03/20 02:03:28;;;;;;;21.70;13.23;;;;;;;;;;6280084;22;20339;-81
2022/03/20 02:05:55;;;;;;;20.98;13.27;;;;;;;;;;6278367;22;19999;-81
2022/03/20 02:08:25;;;;;;;19.52;12.18;;;;;;;;;;6279108;22;20050;-81
2022/03/20 02:10:54;;;;;;;17.48;11.65;;;;;;;;;;6279725;22;19996;-82
2022/03/20 02:13:22;;;;;;;19.02;12.40;;;;;;;;;;6279791;22;20022;-82
2022/03/20 02:15:48;;;;;;;18.30;12.50;;;;;;;;;;6277331;22;19995;-81
2022/03/20 02:18:15;;;;;;;23.13;12.88;;;;;;;;;;6279339;22;20044;-82
2022/03/20 02:20:45;;;;;;;20.13;12.55;;;;;;;;;;6280703;22;20007;-83
2022/03/20 02:23:12;;;;;;;19.70;13.05;;;;;;;;;;6282533;22;20023;-82
2022/03/20 02:25:38;;;;;;;20.55;13.25;;;;;;;;;;6280950;22;20014;-82
2022/03/20 02:28:04;;;;;;;19.02;12.05;;;;;;;;;;6280346;22;20058;-82
2022/03/20 02:30:31;;;;;;;22.23;13.32;;;;;;;;;;6279460;22;20008;-82
2022/03/20 02:32:57;;;;;;;16.83;10.70;;;;;;;;;;6277817;22;20092;-83
2022/03/20 02:35:25;;;;;;;18.17;12.07;;;;;;;;;;6278013;22;20436;-82
2022/03/20 02:37:52;;;;;;;16.98;12.88;;;;;;;;;;6280028;22;20010;-82
2022/03/20 02:40:19;;;;;;;18.50;12.10;;;;;;;;;;6278097;22;20528;-83
2022/03/20 02:42:46;;;;;;;19.00;12.23;;;;;;;;;;6278706;22;20328;-81
2022/03/20 02:45:14;;;;;;;17.27;12.32;;;;;;;;;;6280031;22;20022;-81
2022/03/20 02:47:41;;;;;;;19.15;13.00;;;;;;;;;;6279115;22;20451;-82
2022/03/20 02:50:07;;;;;;;18.27;12.55;;;;;;;;;;6277748;22;20004;-82
2022/03/20 02:52:46;;;;;;;18.25;12.70;;;;;;;;;;6277188;22;20087;-81
2022/03/20 02:55:12;;;;;;;18.50;12.50;;;;;;;;;;6278974;22;20462;-82
2022/03/20 02:57:38;;;;;;;20.15;13.50;;;;;;;;;;6277399;22;20447;-82
2022/03/20 03:00:05;;;;;;;18.55;12.77;;;;;;;;;;6277024;22;20004;-81
2022/03/20 03:02:35;;;;;;;19.05;13.63;;;;;;;;;;6279054;22;19996;-82
2022/03/20 03:05:01;;;;;;;19.77;12.38;;;;;;;;;;6278544;22;20057;-82
2022/03/20 03:07:28;;;;;;;18.67;13.07;;;;;;;;;;6277708;22;20007;-81
2022/03/20 03:12:39;;;;;;;20.17;13.30;;;;;;;;;;6279053;22;20035;-82
2022/03/20 03:15:20;;;;;;;18.13;12.45;;;;;;;;;;6279695;22;20011;-82
2022/03/20 03:17:47;;;;;;;18.92;13.02;;;;;;;;;;6278613;22;20004;-81
2022/03/20 03:20:13;;;;;;;17.80;11.85;;;;;;;;;;6276860;22;20000;-82
2022/03/20 03:22:39;;;;;;;17.77;12.32;;;;;;;;;;6279148;22;20004;-81
2022/03/20 03:25:05;;;;;;;18.33;12.57;;;;;;;;;;6277447;22;20003;-81
2022/03/20 03:27:31;;;;;;;19.20;12.93;;;;;;;;;;6279082;22;20121;-82
2022/03/20 03:29:57;;;;;;;16.42;12.40;;;;;;;;;;6278257;22;20004;-80
2022/03/20 03:32:23;;;;;;;20.08;12.15;;;;;;;;;;6276977;22;20463;-81
2022/03/20 03:37:34;;;;;;;20.23;11.88;;;;;;;;;;6280101;22;20015;-81
2022/03/20 03:40:02;;;;;;;19.10;12.77;;;;;;;;;;6278877;22;20006;-81
2022/03/20 03:42:29;;;;;;;18.23;11.88;;;;;;;;;;6279090;22;20428;-81
2022/03/20 03:44:56;;;;;;;19.17;13.13;;;;;;;;;;6279682;22;20008;-82
2022/03/20 03:47:22;;;;;;;17.15;11.73;;;;;;;;;;6278403;22;20104;-82
2022/03/20 03:49:48;;;;;;;19.40;13.43;;;;;;;;;;6278892;22;20003;-82
2022/03/20 03:52:14;;;;;;;19.23;11.93;;;;;;;;;;6279575;22;20058;-82
2022/03/20 03:54:41;;;;;;;20.15;12.38;;;;;;;;;;6279584;22;20372;-82
2022/03/20 03:57:07;;;;;;;19.42;12.68;;;;;;;;;;6292960;22;20019;-80
2022/03/20 03:59:33;;;;;;;17.98;12.75;;;;;;;;;;6284391;22;20392;-81
2022/03/20 04:02:02;;;;;;;15.13;11.70;;;;;;;;;;6284675;22;20086;-81
2022/03/20 04:04:28;;;;;;;18.30;13.43;;;;;;;;;;6313040;22;20335;-82
2022/03/20 04:06:55;;;;;;;18.48;12.00;;;;;;;;;;6312766;22;20029;-82
2022/03/20 04:09:21;;;;;;;17.20;12.57;;;;;;;;;;6310977;22;20335;-82
2022/03/20 04:11:48;;;;;;;16.35;11.60;;;;;;;;;;6312108;22;20011;-81
2022/03/20 04:14:14;;;;;;;19.45;12.95;;;;;;;;;;6283543;22;20003;-82
2022/03/20 04:16:40;;;;;;;16.92;12.07;;;;;;;;;;6311885;22;20003;-81
2022/03/20 04:19:06;;;;;;;20.35;12.68;;;;;;;;;;6311349;22;20006;-82
2022/03/20 04:21:32;;;;;;;18.02;12.20;;;;;;;;;;6312001;22;20446;-81
2022/03/20 04:23:59;;;;;;;19.75;12.98;;;;;;;;;;6311771;22;19995;-82
2022/03/20 04:26:25;;;;;;;17.13;11.93;;;;;;;;;;6283970;22;20346;-80
2022/03/20 04:28:52;;;;;;;17.00;11.82;;;;;;;;;;6312209;22;20003;-81
2022/03/20 04:31:19;;;;;;;19.80;12.93;;;;;;;;;;6311663;22;20375;-82
2022/03/20 04:33:46;;;;;;;16.90;11.35;;;;;;;;;;6311118;22;19999;-82
2022/03/20 04:36:12;;;;;;;20.00;13.43;;;;;;;;;;6311225;22;19995;-82
2022/03/20 04:38:38;;;;;;;18.08;12.65;;;;;;;;;;6311019;22;20051;-82
2022/03/20 04:41:05;;;;;;;18.75;12.25;;;;;;;;;;6311846;22;20109;-81
2022/03/20 04:43:31;;;;;;;16.73;12.40;;;;;;;;;;6283374;22;20033;-82
2022/03/20 04:45:57;;;;;;;17.75;11.85;;;;;;;;;;6310894;22;19992;-81
2022/03/20 04:59:22;;;;;;;18.15;11.20;;;;;;;;;;6308923;22;20050;-82
2022/03/20 05:01:48;;;;;;;16.75;11.38;;;;;;;;;;6282879;22;20000;-82
2022/03/20 05:04:14;;;;;;;14.73;10.25;;;;;;;;;;6309693;22;20355;-82
2022/03/20 05:06:43;;;;;;;19.92;12.38;;;;;;;;;;6309930;22;20052;-82
2022/03/20 05:14:38;;;;;;;17.92;11.70;;;;;;;;;;6309165;22;20014;-81
2022/03/20 05:17:07;;;;;;;15.10;9.60;;;;;;;;;;6308558;22;20003;-82
2022/03/20 05:19:43;;;;;;;15.57;11.15;;;;;;;;;;6307630;22;20025;-82
2022/03/20 05:22:10;;;;;;;16.85;10.68;;;;;;;;;;6308744;22;20015;-82
2022/03/20 05:24:37;;;;;;;16.27;10.32;;;;;;;;;;6278973;22;20003;-81
2022/03/20 05:27:03;;;;;;;16.88;10.45;;;;;;;;;;6308564;22;20466;-81
2022/03/20 05:29:29;;;;;;;14.73;10.48;;;;;;;;;;6280708;22;20003;-82
2022/03/20 05:31:56;;;;;;;16.17;10.13;;;;;;;;;;6285838;22;20007;-81
2022/03/20 05:34:22;;;;;;;16.35;10.57;;;;;;;;;;6287983;22;20004;-82
2022/03/20 05:36:49;;;;;;;15.65;10.02;;;;;;;;;;6287437;22;20064;-82
2022/03/20 05:39:15;;;;;;;14.60;9.77;;;;;;;;;;6286077;22;19999;-81
2022/03/20 05:41:48;;;;;;;18.90;11.43;;;;;;;;;;6311565;22;19995;-82
2022/03/20 05:44:16;;;;;;;;;;;;;;;;;;6313577;22;19995;-82
2022/03/20 05:46:42;;;;;;;14.60;9.65;;;;;;;;;;6312737;22;19934;-81
2022/03/20 05:49:08;;;;;;;15.15;10.52;;;;;;;;;;6284860;22;20015;-82
2022/03/20 05:51:34;;;;;;;15.23;10.57;;;;;;;;;;6283212;22;20014;-81
2022/03/20 05:54:01;;;;;;;17.73;11.60;;;;;;;;;;6282930;22;20085;-82
2022/03/20 05:59:12;;;;;;;14.55;9.88;;;;;;;;;;6310865;22;20018;-82
2022/03/20 06:01:38;;;;;;;14.95;10.40;;;;;;;;;;6313228;22;20056;-82
2022/03/20 06:04:05;;;;;;;16.65;10.30;;;;;;;;;;6286044;22;19999;-82
2022/03/20 06:06:31;;;;;;;15.02;10.95;;;;;;;;;;6312129;22;20006;-82
2022/03/20 06:08:57;;;;;;;18.17;11.02;;;;;;;;;;6283320;22;20038;-82
2022/03/20 06:11:23;;;;;;;15.15;9.82;;;;;;;;;;6285177;22;20003;-83
2022/03/20 06:13:49;;;;;;;16.83;10.30;;;;;;;;;;6312219;22;20326;-81
2022/03/20 06:16:17;;;;;;;16.58;10.50;;;;;;;;;;6311399;22;20051;-82
2022/03/20 06:18:43;;;;;;;16.52;10.75;;;;;;;;;;6311774;22;19996;-82
2022/03/20 06:21:11;;;;;;;14.43;9.73;;;;;;;;;;6285188;22;20056;-83
2022/03/20 06:23:37;;;;;;;14.07;9.60;;;;;;;;;;6283838;22;20003;-82
2022/03/20 06:26:04;;;;;;;14.23;10.07;;;;;;;;;;6310689;22;20051;-83
2022/03/20 06:28:30;;;;;;;15.43;9.95;;;;;;;;;;6284043;22;20581;-84
2022/03/20 06:30:56;;;;;;;15.10;10.50;;;;;;;;;;6284684;22;20086;-83
2022/03/20 06:33:25;;;;;;;16.63;10.77;;;;;;;;;;6312698;22;20243;-82
2022/03/20 06:35:51;;;;;;;19.45;11.48;;;;;;;;;;6312882;22;20056;-82
2022/03/20 06:38:19;;;;;;;15.75;10.27;;;;;;;;;;6284410;22;20038;-82
2022/03/20 06:40:45;;;;;;;19.33;11.57;;;;;;;;;;6283986;22;19999;-83
2022/03/20 06:43:13;;;;;;;15.70;10.50;;;;;;;;;;6282905;22;20007;-82
2022/03/20 06:45:41;;;;;;;17.10;10.15;;;;;;;;;;6282693;22;20002;-82
2022/03/20 06:48:07;;;;;;;18.42;10.38;;;;;;;;;;6283656;22;20031;-83
2022/03/20 06:50:33;;;;;;;15.57;10.48;;;;;;;;;;6283153;22;20007;-80
2022/03/20 06:53:03;;;;;;;15.18;10.68;;;;;;;;;;6283658;22;20010;-81
2022/03/20 06:55:30;;;;;;;16.55;10.75;;;;;;;;;;6283300;22;20003;-82
2022/03/20 06:58:00;;;;;;;15.00;10.27;;;;;;;;;;6310812;22;20011;-81
2022/03/20 07:00:28;;;;;;;15.52;10.38;;;;;;;;;;6310526;22;19999;-82
2022/03/20 07:02:54;;;;;;;17.08;11.15;;;;;;;;;;6310136;22;20378;-80
2022/03/20 07:05:21;;;;;;;14.27;10.63;;;;;;;;;;6316149;22;20022;-81
2022/03/20 07:07:48;;;;;;;16.30;9.65;;;;;;;;;;6319115;22;19999;-83
2022/03/20 07:10:15;;;;;;;15.77;10.82;;;;;;;;;;6318396;22;20006;-81
2022/03/20 07:12:40;;;;;;;15.85;10.07;;;;;;;;;;6288447;22;20008;-81
2022/03/20 07:15:07;;;;;;;16.30;11.15;;;;;;;;;;6287860;22;20007;-82
2022/03/20 07:17:36;;;;;;;15.88;10.18;;;;;;;;;;6312486;22;20007;-83
2022/03/20 07:20:03;;;;;;;13.25;10.40;;;;;;;;;;6283184;22;19999;-81
2022/03/20 07:22:29;;;;;;;14.93;10.40;;;;;;;;;;6312088;22;20003;-81
2022/03/20 07:29:29;;;;;;;15.10;9.82;;;;;;;;;;6313775;22;20415;-82
2022/03/20 07:30:25;;;;;;;15.15;10.63;;;;;;;;;;6314400;22;20086;-81
2022/03/20 07:32:51;;;;;;;19.40;11.75;;;;;;;;;;6314015;22;19996;-82
2022/03/20 07:35:17;;;;;;;14.75;10.90;;;;;;;;;;6286000;22;20003;-82
2022/03/20 07:37:43;;;;;;;14.65;10.75;;;;;;;;;;6286816;22;20007;-82
2022/03/20 07:40:10;;;;;;;16.05;10.45;;;;;;;;;;6325829;22;19995;-83
2022/03/20 07:42:36;;;;;;;18.38;11.77;;;;;;;;;;6322613;22;19999;-82
2022/03/20 07:45:03;;;;;;;17.75;12.02;;;;;;;;;;6321430;22;19992;-83
2022/03/20 07:47:29;;;;;;;15.70;10.65;;;;;;;;;;6289509;22;20011;-83
2022/03/20 07:49:55;;;;;;;19.35;10.88;;;;;;;;;;6285345;22;20006;-83
2022/03/20 07:52:22;;;;;;;17.55;11.00;;;;;;;;;;6312719;22;20003;-83
2022/03/20 07:54:48;;;;;;;15.95;10.52;;;;;;;;;;6284656;22;20031;-83
2022/03/20 07:57:15;;;;;;;16.52;11.50;;;;;;;;;;6312553;22;20007;-82
2022/03/20 07:59:44;;;;;;;15.55;10.57;;;;;;;;;;6312153;22;19999;-82
2022/03/20 08:02:10;;;;;;;15.68;10.25;;;;;;;;;;6312672;22;20026;-84
2022/03/20 08:04:36;;;;;;;17.10;11.05;;;;;;;;;;6312597;22;20010;-83
2022/03/20 08:07:02;;;;;;;15.27;10.05;;;;;;;;;;6285966;22;20137;-84
2022/03/20 08:09:28;;;;;;;18.70;11.75;;;;;;;;;;6313192;22;19999;-82
2022/03/20 08:11:55;;;;;;;15.43;11.65;;;;;;;;;;6285069;22;20014;-82
2022/03/20 08:14:23;;;;;;;16.77;12.23;;;;;;;;;;6285604;22;20007;-83
2022/03/20 08:16:49;;;;;;;15.48;10.90;;;;;;;;;;6313284;22;20058;-81
2022/03/20 08:19:17;;;;;;;16.38;11.77;;;;;;;;;;6313451;22;20000;-82
2022/03/20 08:21:45;;;;;;;15.88;10.93;;;;;;;;;;6284475;22;20049;-83
2022/03/20 08:24:12;;;;;;;15.98;11.95;;;;;;;;;;6312151;22;20340;-84
2022/03/20 08:26:40;;;;;;;19.35;11.65;;;;;;;;;;6312121;22;20023;-82
2022/03/20 08:29:10;;;;;;;17.55;11.30;;;;;;;;;;6284524;22;20007;-84
2022/03/20 08:31:36;;;;;;;16.75;12.00;;;;;;;;;;6285696;22;20045;-82
2022/03/20 08:34:04;;;;;;;17.73;11.52;;;;;;;;;;6286551;22;20351;-81
2022/03/20 08:36:30;;;;;;;17.70;11.43;;;;;;;;;;6287312;22;20010;-83
2022/03/20 08:38:56;;;;;;;16.52;11.23;;;;;;;;;;6286827;22;20324;-82
2022/03/20 08:41:22;;;;;;;14.55;10.20;;;;;;;;;;6313133;22;20002;-85
2022/03/20 08:43:48;;;;;;;17.40;12.18;;;;;;;;;;6285354;22;19999;-84
2022/03/20 08:46:17;;;;;;;17.55;11.63;;;;;;;;;;6284828;22;20334;-83
2022/03/20 08:48:43;;;;;;;16.48;11.38;;;;;;;;;;6285634;22;19999;-82
2022/03/20 08:51:09;;;;;;;14.63;10.00;;;;;;;;;;6284921;22;20025;-80
2022/03/20 08:53:35;;;;;;;16.05;11.27;;;;;;;;;;6310880;22;20438;-82
2022/03/20 08:56:01;;;;;;;16.48;11.00;;;;;;;;;;6311902;22;20462;-82
2022/03/20 08:58:27;;;;;;;15.23;10.45;;;;;;;;;;6284385;22;20037;-81
2022/03/20 09:00:57;;;;;;;15.18;10.55;;;;;;;;;;6311082;22;20021;-82
2022/03/20 09:03:23;;;;;;;16.33;11.13;;;;;;;;;;6284890;22;20450;-82
2022/03/20 09:05:49;;;;;;;14.43;10.35;;;;;;;;;;6311259;22;19996;-82
2022/03/20 09:08:15;;;;;;;16.60;10.95;;;;;;;;;;6284265;22;20351;-82
2022/03/20 09:10:41;;;;;;;18.02;10.77;;;;;;;;;;6283798;22;20352;-82
2022/03/20 09:13:07;;;;;;;18.90;10.95;;;;;;;;;;6312723;22;20501;-84
2022/03/20 09:15:33;;;;;;;17.05;12.02;;;;;;;;;;6285543;22;20397;-83
2022/03/20 09:20:45;;;;;;;15.75;11.35;;;;;;;;;;6313597;22;20063;-82
2022/03/20 09:23:12;;;;;;;18.10;12.63;;;;;;;;;;6311588;22;20007;-82
2022/03/20 09:25:39;;;;;;;18.45;11.68;;;;;;;;;;6283882;22;20003;-84
2022/03/20 09:28:07;;;;;;;16.50;12.23;;;;;;;;;;6285589;22;20395;-83
2022/03/20 09:30:33;;;;;;;16.45;11.55;;;;;;;;;;6312471;22;19999;-83
2022/03/20 09:33:02;;;;;;;18.00;12.40;;;;;;;;;;6284045;22;20003;-84
2022/03/20 09:35:28;;;;;;;17.25;11.77;;;;;;;;;;6284427;22;20011;-84
2022/03/20 09:37:54;;;;;;;20.50;13.15;;;;;;;;;;6312421;22;20006;-82
2022/03/20 09:40:22;;;;;;;17.83;11.20;;;;;;;;;;6283124;22;20000;-82
2022/03/20 09:42:48;;;;;;;17.90;13.18;;;;;;;;;;6311989;22;20060;-84
2022/03/20 09:45:17;;;;;;;16.83;11.20;;;;;;;;;;6310111;22;20056;-83
2022/03/20 09:47:43;;;;;;;15.45;12.57;;;;;;;;;;6284581;22;20011;-83
2022/03/20 09:50:10;;;;;;;16.50;12.52;;;;;;;;;;6311342;22;20057;-83
2022/03/20 09:52:37;;;;;;;19.50;12.50;;;;;;;;;;6283560;22;20397;-84
2022/03/20 09:55:04;;;;;;;17.83;12.52;;;;;;;;;;6311205;22;19999;-82
2022/03/20 09:57:30;;;;;;;16.05;12.18;;;;;;;;;;6310965;22;20007;-83
2022/03/20 10:00:03;;;;;;;17.75;11.93;;;;;;;;;;6283277;22;20037;-83
2022/03/20 10:02:30;;;;;;;17.45;13.07;;;;;;;;;;6283287;22;20090;-84
2022/03/20 10:04:59;;;;;;;17.45;12.15;;;;;;;;;;6282616;22;19999;-84
2022/03/20 10:07:29;;;;;;;18.90;12.40;;;;;;;;;;6310877;22;19999;-83
2022/03/20 10:10:09;;;;;;;15.32;12.10;;;;;;;;;;6311435;22;20026;-84
2022/03/20 10:12:36;;;;;;;16.52;12.48;;;;;;;;;;6283205;22;20034;-82
2022/03/20 10:15:11;;;;;;;17.45;12.10;;;;;;;;;;6310861;22;20010;-83
2022/03/20 10:17:37;;;;;;;18.60;12.32;;;;;;;;;;6283485;22;20064;-82
2022/03/20 10:20:21;;;;;;;18.30;12.18;;;;;;;;;;6310987;22;20043;-84
2022/03/20 10:22:47;;;;;;;17.40;12.35;;;;;;;;;;6282927;22;19995;-82
2022/03/20 10:25:17;;;;;;;19.52;12.95;;;;;;;;;;6310445;22;19999;-83
2022/03/20 10:27:57;;;;;;;18.15;11.95;;;;;;;;;;6311918;22;20054;-83
2022/03/20 10:30:23;;;;;;;18.13;12.50;;;;;;;;;;6283399;22;20026;-83
2022/03/20 10:32:49;;;;;;;17.33;12.85;;;;;;;;;;6311233;22;20025;-83
2022/03/20 10:35:17;;;;;;;19.30;14.30;;;;;;;;;;6310879;22;20003;-83
2022/03/20 10:37:55;;;;;;;20.90;13.38;;;;;;;;;;6309799;22;20003;-82
2022/03/20 10:40:23;;;;;;;17.45;12.80;;;;;;;;;;6283092;22;20443;-83
2022/03/20 10:43:07;;;;;;;20.27;13.38;;;;;;;;;;6311658;22;20003;-82
2022/03/20 10:45:48;;;;;;;16.10;11.95;;;;;;;;;;6309040;22;20436;-82
2022/03/20 10:48:16;;;;;;;17.95;13.02;;;;;;;;;;6283065;22;20013;-83
2022/03/20 10:50:48;;;;;;;17.88;11.90;;;;;;;;;;6282800;22;19999;-83
2022/03/20 10:53:14;;;;;;;23.17;12.77;;;;;;;;;;6313188;22;19999;-83
2022/03/20 10:55:40;;;;;;;22.15;13.20;;;;;;;;;;6285162;22;20037;-83
2022/03/20 10:58:20;;;;;;;18.17;13.48;;;;;;;;;;6287540;22;20015;-84
2022/03/20 11:00:46;;;;;;;17.33;12.38;;;;;;;;;;6284808;22;19999;-83
2022/03/20 11:03:14;;;;;;;18.33;13.25;;;;;;;;;;6311430;22;19995;-83
2022/03/20 11:05:40;;;;;;;18.48;12.98;;;;;;;;;;6283471;22;20256;-82
2022/03/20 11:08:07;;;;;;;20.00;13.20;;;;;;;;;;6311216;22;20431;-82
2022/03/20 11:10:34;;;;;;;17.70;12.98;;;;;;;;;;6311422;22;20003;-85
2022/03/20 11:13:01;;;;;;;20.23;12.23;;;;;;;;;;6310618;22;20006;-82
2022/03/20 11:15:29;;;;;;;16.48;11.75;;;;;;;;;;6311331;22;20431;-83
2022/03/20 11:17:56;;;;;;;18.20;12.80;;;;;;;;;;6311021;22;20316;-84
2022/03/20 11:20:23;;;;;;;16.95;11.68;;;;;;;;;;6311354;22;19995;-82
2022/03/20 11:22:50;;;;;;;17.88;11.45;;;;;;;;;;6310895;22;20426;-84
2022/03/20 11:25:20;;;;;;;17.45;12.13;;;;;;;;;;6310416;22;20006;-84
2022/03/20 11:27:47;;;;;;;17.35;12.55;;;;;;;;;;6308725;22;20011;-83
2022/03/20 11:30:13;;;;;;;17.23;12.35;;;;;;;;;;6284743;22;20003;-86
2022/03/20 11:32:43;;;;;;;15.75;10.88;;;;;;;;;;6314854;22;20425;-82
2022/03/20 11:35:09;;;;;;;19.42;12.85;;;;;;;;;;6320605;22;20055;-80
2022/03/20 11:37:45;;;;;;;17.23;11.95;;;;;;;;;;6316953;22;20002;-82
2022/03/20 11:40:12;;;;;;;16.65;12.20;;;;;;;;;;6283413;22;20056;-84
2022/03/20 11:42:39;;;;;;;18.58;12.10;;;;;;;;;;6312108;22;19999;-83
2022/03/20 11:45:05;;;;;;;18.02;11.95;;;;;;;;;;6310718;22;19999;-83
2022/03/20 11:47:32;;;;;;;18.20;12.35;;;;;;;;;;6283782;22;20003;-81
2022/03/20 11:50:11;;;;;;;18.77;13.05;;;;;;;;;;6310398;22;20025;-82
2022/03/20 11:52:46;;;;;;;18.88;11.98;;;;;;;;;;6284237;22;20407;-80
2022/03/20 11:55:27;;;;;;;18.23;12.38;;;;;;;;;;6311738;22;20067;-82
2022/03/20 11:57:53;;;;;;;17.00;12.15;;;;;;;;;;6235818;22;1125295;-81
2022/03/20 12:00:23;;;;;;;17.73;12.43;;;;;;;;;;6286067;22;20498;-82
2022/03/20 12:02:50;;;;;;;17.77;12.63;;;;;;;;;;6313666;22;19996;-82
2022/03/20 12:05:28;;;;;;;16.63;12.23;;;;;;;;;;6312850;22;20007;-84
2022/03/20 12:07:57;;;;;;;15.85;12.15;;;;;;;;;;6312469;22;20072;-84
2022/03/20 12:10:25;;;;;;;16.77;11.85;;;;;;;;;;6285381;22;20359;-84
2022/03/20 12:13:00;;;;;;;17.08;12.75;;;;;;;;;;6315510;22;20010;-85
2022/03/20 12:15:29;;;;;;;15.60;12.10;;;;;;;;;;6313353;22;20020;-85
2022/03/20 12:17:57;;;;;;;16.63;11.57;;;;;;;;;;6288402;22;20008;-85
2022/03/20 12:20:41;;;;;;;18.42;12.27;;;;;;;;;;6285054;22;20038;-85
2022/03/20 12:23:26;;;;;;;16.70;11.48;;;;;;;;;;6286720;22;20030;-83
2022/03/20 12:25:53;;;;;;;14.25;12.48;;;;;;;;;;6286490;22;19999;-84
2022/03/20 12:28:29;;;;;;;15.00;11.50;;;;;;;;;;6288776;22;20007;-83
2022/03/20 12:30:55;;;;;;;19.52;12.23;;;;;;;;;;6288400;22;20011;-83
2022/03/20 12:33:22;;;;;;;14.75;11.30;;;;;;;;;;6286260;22;20007;-81
2022/03/20 12:35:49;;;;;;;17.65;12.82;;;;;;;;;;6313983;22;20437;-85
2022/03/20 12:38:37;;;;;;;15.27;11.23;;;;;;;;;;6285632;22;20008;-82
2022/03/20 12:41:13;;;;;;;14.43;10.30;;;;;;;;;;6312913;22;20006;-83
2022/03/20 12:43:40;;;;;;;15.80;12.25;;;;;;;;;;6312828;22;20005;-83
2022/03/20 12:46:07;;;;;;;14.38;11.38;;;;;;;;;;6285437;22;20005;-85
2022/03/20 12:48:35;;;;;;;14.77;10.88;;;;;;;;;;6284605;22;19999;-84
2022/03/20 12:51:04;;;;;;;14.05;10.60;;;;;;;;;;6312726;22;20079;-84
2022/03/20 12:53:50;;;;;;;14.40;9.77;;;;;;;;;;6286310;22;20438;-84
2022/03/20 12:58:48;;;;;;;14.68;10.60;;;;;;;;;;6316390;22;20042;-83
2022/03/20 13:01:15;;;;;;;15.68;9.52;;;;;;;;;;6284641;22;20003;-82
2022/03/20 13:03:42;;;;;;;14.25;10.32;;;;;;;;;;6284661;22;20010;-83
2022/03/20 13:06:08;;;;;;;13.70;9.02;;;;;;;;;;6312447;22;20003;-82
2022/03/20 13:08:38;;;;;;;12.45;9.57;;;;;;;;;;6284829;22;20014;-84
2022/03/20 13:13:54;;;;;;;12.05;8.32;;;;;;;;;;6311444;22;20064;-81
2022/03/20 13:16:24;;;;;;;12.45;8.80;;;;;;;;;;6285057;22;20086;-83
2022/03/20 13:18:50;;;;;;;12.50;8.70;;;;;;;;;;6311886;22;20446;-86
2022/03/20 13:21:16;;;;;;;12.25;8.63;;;;;;;;;;6284996;22;20010;-85
2022/03/20 13:23:45;;;;;;;12.95;9.60;;;;;;;;;;6284234;22;20019;-83
2022/03/20 13:26:11;;;;;;;16.17;10.25;;;;;;;;;;6284294;22;20003;-84
2022/03/20 13:28:40;;;;;;;13.30;10.50;;;;;;;;;;6311766;22;20439;-84
2022/03/20 13:31:17;;;;;;;13.82;10.60;;;;;;;;;;6311261;22;20007;-84
2022/03/20 13:33:51;;;;;;;13.85;10.52;;;;;;;;;;6284091;22;20007;-84
2022/03/20 13:36:17;;;;;;;13.32;10.35;;;;;;;;;;6312092;22;20003;-85
2022/03/20 13:38:45;;;;;;;14.45;10.02;;;;;;;;;;6283878;22;20018;-85
2022/03/20 13:41:12;;;;;;;14.10;9.63;;;;;;;;;;6311217;22;19995;-85
2022/03/20 13:43:39;;;;;;;12.77;9.35;;;;;;;;;;6312023;22;20002;-85
2022/03/20 13:46:19;;;;;;;13.30;9.63;;;;;;;;;;6310953;22;20022;-85
2022/03/20 13:48:46;;;;;;;12.02;9.52;;;;;;;;;;6284108;22;20014;-84
2022/03/20 13:51:12;;;;;;;12.15;8.50;;;;;;;;;;6284415;22;20022;-82
2022/03/20 13:53:40;;;;;;;13.27;9.80;;;;;;;;;;6284731;22;20312;-83
2022/03/20 13:56:19;;;;;;;13.40;9.15;;;;;;;;;;6312323;22;20419;-83
2022/03/20 13:59:06;;;;;;;12.32;9.35;;;;;;;;;;6284099;22;20011;-83
2022/03/20 14:01:41;;;;;;;14.48;9.13;;;;;;;;;;6312240;22;20026;-84
2022/03/20 14:04:11;;;;;;;12.85;8.35;;;;;;;;;;6313246;22;20011;-85
2022/03/20 14:06:38;;;;;;;11.25;8.25;;;;;;;;;;6312329;22;19999;-84
2022/03/20 14:09:04;;;;;;;12.27;8.75;;;;;;;;;;6311667;22;20026;-82
2022/03/20 14:11:32;;;;;;;13.70;9.35;;;;;;;;;;6312161;22;19996;-83
2022/03/20 14:13:58;;;;;;;13.77;9.70;;;;;;;;;;6312998;22;20000;-83
2022/03/20 14:16:24;;;;;;;13.75;10.15;;;;;;;;;;6330284;22;19991;-82
2022/03/20 14:18:50;;;;;;;13.27;9.35;;;;;;;;;;6330833;22;19999;-81
2022/03/20 14:21:18;;;;;;;12.43;8.93;;;;;;;;;;6305124;22;20034;-79
2022/03/20 14:23:56;;;;;;;12.70;8.95;;;;;;;;;;6300051;22;20011;-83
2022/03/20 14:26:22;;;;;;;14.00;10.60;;;;;;;;;;6321574;22;20004;-84
2022/03/20 14:29:00;;;;;;;16.35;13.48;;;;;;;;;;6285381;22;20013;-84
2022/03/20 14:39:43;;;;;;;14.43;9.88;;;;;;;;;;6315163;22;20037;-83
2022/03/20 14:42:22;;;;;;;15.38;10.00;;;;;;;;;;6312255;22;20003;-83
2022/03/20 14:44:52;;;;;;;14.07;9.20;;;;;;;;;;6285574;22;20003;-83
2022/03/20 14:47:19;;;;;;;14.75;9.63;;;;;;;;;;6313861;22;20010;-83
2022/03/20 14:49:46;;;;;;;13.07;9.18;;;;;;;;;;6330574;22;19984;-80
2022/03/20 14:52:15;;;;;;;14.18;9.82;;;;;;;;;;6331576;22;20039;-80
2022/03/20 14:54:42;;;;;;;12.02;9.43;;;;;;;;;;6330181;22;19995;-81
2022/03/20 14:57:08;;;;;;;16.33;10.48;;;;;;;;;;6296249;22;20018;-81
2022/03/20 14:59:35;;;;;;;13.48;9.60;;;;;;;;;;6313450;22;20061;-82
2022/03/20 15:02:01;;;;;;;14.57;10.13;;;;;;;;;;6286509;22;20427;-83
2022/03/20 15:04:33;;;;;;;14.05;9.88;;;;;;;;;;6313113;22;20078;-82
2022/03/20 15:06:59;;;;;;;13.32;10.00;;;;;;;;;;6312354;22;20070;-83